Aérodrome :
LOGIN :

S'inscrire | Disclaimer

   EN    FR    IT 

 










Légende :    VFR   VFR Marginal   IFR   IFR Intensif   IFR Très Intensif
Visi : 
Plafond : 
>= 8 km
>= 3000ft
5 à 8 km
1000 à 3000 ft
1500m à 5 km
500 à 1000 ft
800 à 1500m
200 à 500 ft
< 800m
< 200 ft
Symboles :   Orages  Brouillard  Fortes neiges  Fortes précipitations  Vent > 20 kt
SIGMETs :   Divers  Orages  Givrage  Turbulence  Onde Orograph.  Cendres Volcan.






- Altitude de l'aérodrome : 121 ft
- Code IATA : HUY


EGNJ - Humberside

DERNIER METAR :
  • 310850Z AUTO 07010KT 9999 NCD 17/11 Q1025

METARs EXPIRÉS :
  • 310820Z AUTO 08008KT 050V110 9999 NCD 17/11 Q1025
  • 310750Z AUTO 07011KT 9999 FEW036/// 16/11 Q1026
  • 310720Z AUTO 05010KT 9999 NCD 15/11 Q1026
  • 310650Z AUTO 05008KT 9999 FEW041/// 14/12 Q1026
  • 310620Z AUTO 05006KT 9999 NCD 13/11 Q1026

TAF TAF EGNJ
Valide du 31 à 09h jusqu'au 31 à 18h UTC


310755Z 3109/3118 06006KT CAVOK
ATIS : +44 1652 682 020



MET'MAP, la Météo Aéronautique d'un coup d'oeil ! - Copyright ORBIFLY Décembre 2007 - Disclaimer

ORBIFLY MET'MAP TEAM :

Programmation & Développement : Alexandra Zaïnal
Sur une idée originale de : Baudouin d'Aumeries
Assistance à la programmation : Marc-Olivier Méhu
Soutien technique & logistique : Manuel Goepfert

Contact : metmap@orbifly.com




SOURCES & CREDITS :

   NOAA